Time;durP1;ratioP1;P1;durP2;ratioP2;P2;SDS_P1;SDS_P2;PMS_P1;PMS_P2;Temp;Humidity;BMP_temperature;BMP_pressure;BME280_temperature;BME280_humidity;BME280_pressure;Samples;Min_cycle;Max_cycle;Signal;HPM_P1;HPM_P2
2023/06/20 00:02:22;;;;;;;18.80;10.85;;;17.10;99.90;;;;;;5038221;28;20067;-85
2023/06/20 00:05:08;;;;;;;16.58;10.98;;;17.10;99.90;;;;;;5033080;28;20052;-79
2023/06/20 00:07:54;;;;;;;14.93;10.93;;;17.10;99.90;;;;;;5035810;28;20064;-83
2023/06/20 00:10:40;;;;;;;16.20;11.07;;;17.10;99.90;;;;;;5053563;28;20047;-81
2023/06/20 00:13:26;;;;;;;19.23;13.25;;;17.10;99.90;;;;;;5039025;28;20057;-80
2023/06/20 00:16:12;;;;;;;22.77;15.13;;;17.20;99.90;;;;;;5061168;28;20532;-84
2023/06/20 00:18:58;;;;;;;22.10;14.73;;;17.20;99.90;;;;;;5051860;28;20088;-82
2023/06/20 00:21:44;;;;;;;22.63;14.93;;;17.20;99.90;;;;;;5051050;28;20136;-82
2023/06/20 00:24:32;;;;;;;21.48;13.77;;;17.20;99.90;;;;;;5033483;28;20552;-80
2023/06/20 00:27:18;;;;;;;19.52;13.30;;;17.30;99.90;;;;;;5020588;28;20056;-81
2023/06/20 00:30:05;;;;;;;19.77;14.15;;;17.30;99.90;;;;;;5050871;28;20386;-79
2023/06/20 00:32:51;;;;;;;18.45;11.50;;;17.30;99.90;;;;;;5032688;28;20057;-80
2023/06/20 00:35:37;;;;;;;16.45;10.55;;;17.30;99.90;;;;;;5050495;28;20077;-79
2023/06/20 00:38:23;;;;;;;17.92;12.45;;;17.20;99.90;;;;;;5050912;28;20053;-83
2023/06/20 00:41:09;;;;;;;22.85;12.65;;;17.20;99.90;;;;;;5053245;28;20059;-85
2023/06/20 00:43:55;;;;;;;16.55;12.13;;;17.20;99.90;;;;;;5041838;28;20045;-86
2023/06/20 00:46:41;;;;;;;23.05;13.43;;;17.20;99.90;;;;;;5024687;28;20089;-82
2023/06/20 00:49:27;;;;;;;20.67;12.35;;;17.10;99.90;;;;;;5052246;28;20047;-85
2023/06/20 00:52:16;;;;;;;18.13;13.23;;;17.10;99.90;;;;;;5058391;28;20534;-85
2023/06/20 00:55:02;;;;;;;16.98;10.85;;;17.10;99.90;;;;;;5054173;28;20052;-86
2023/06/20 00:57:48;;;;;;;18.80;11.73;;;17.10;99.90;;;;;;5051116;28;20052;-85
2023/06/20 01:00:35;;;;;;;18.20;12.32;;;17.10;99.90;;;;;;5053281;28;20056;-88
2023/06/20 01:03:21;;;;;;;17.00;11.90;;;17.00;99.90;;;;;;5020452;28;20555;-89
2023/06/20 01:06:10;;;;;;;20.67;12.25;;;17.00;99.90;;;;;;5042628;28;20406;-90
2023/06/20 01:09:28;;;;;;;20.85;13.05;;;17.00;99.90;;;;;;5053468;28;20052;-82
2023/06/20 01:12:42;;;;;;;18.75;12.43;;;17.00;99.90;;;;;;5052722;28;20045;-80
2023/06/20 01:15:43;;;;;;;23.13;13.68;;;17.00;99.90;;;;;;5053288;28;20052;-87
2023/06/20 01:18:47;;;;;;;21.88;13.70;;;17.00;99.90;;;;;;5053981;28;20045;-85
2023/06/20 01:21:44;;;;;;;22.08;12.55;;;17.00;99.90;;;;;;5051925;28;20114;-80
2023/06/20 01:24:49;;;;;;;22.30;13.93;;;17.00;99.90;;;;;;5037780;28;20060;-87
2023/06/20 01:27:47;;;;;;;20.87;13.60;;;17.00;99.90;;;;;;5051833;28;20049;-80
2023/06/20 01:30:59;;;;;;;26.73;15.20;;;17.00;99.90;;;;;;5036880;28;20342;-83
2023/06/20 01:33:53;;;;;;;22.90;14.43;;;17.00;99.90;;;;;;5053201;28;20118;-89
2023/06/20 01:36:46;;;;;;;24.33;16.45;;;17.00;99.90;;;;;;5051503;28;20045;-88
2023/06/20 01:39:49;;;;;;;26.83;15.77;;;17.00;99.90;;;;;;5034055;28;20075;-80
2023/06/20 01:42:37;;;;;;;27.23;16.50;;;17.00;99.90;;;;;;5051691;28;20049;-82
2023/06/20 01:45:27;;;;;;;26.52;15.98;;;17.10;99.90;;;;;;5051182;28;20040;-88
2023/06/20 01:48:15;;;;;;;23.40;17.63;;;17.10;99.90;;;;;;5049601;28;20053;-81
2023/06/20 01:51:01;;;;;;;26.30;16.60;;;17.10;99.90;;;;;;5053381;28;20053;-80
2023/06/20 01:53:49;;;;;;;24.20;14.55;;;17.10;99.90;;;;;;5031851;28;20053;-80
2023/06/20 01:56:36;;;;;;;18.35;12.75;;;17.10;99.90;;;;;;5051270;28;20187;-84
2023/06/20 01:59:22;;;;;;;26.15;16.05;;;17.10;99.90;;;;;;5021200;28;20053;-83
2023/06/20 02:02:10;;;;;;;25.48;15.93;;;17.10;99.90;;;;;;5017950;28;20056;-81
2023/06/20 02:04:58;;;;;;;23.58;15.15;;;17.10;99.90;;;;;;5048396;28;20048;-81
2023/06/20 02:07:46;;;;;;;26.05;17.25;;;17.10;99.90;;;;;;5021853;28;20041;-84
2023/06/20 02:10:33;;;;;;;26.20;17.75;;;17.20;99.90;;;;;;5049100;28;20048;-79
2023/06/20 02:13:22;;;;;;;27.50;18.17;;;17.20;99.90;;;;;;5049713;28;20370;-81
2023/06/20 02:16:10;;;;;;;27.95;17.02;;;17.20;99.90;;;;;;5031216;28;20076;-82
2023/06/20 02:18:56;;;;;;;25.45;16.77;;;17.20;99.90;;;;;;5050838;28;20053;-88
2023/06/20 02:21:45;;;;;;;26.55;17.05;;;17.20;99.90;;;;;;5054247;28;20052;-81
2023/06/20 02:24:33;;;;;;;24.98;15.63;;;17.20;99.90;;;;;;5049465;28;20056;-82
2023/06/20 02:27:21;;;;;;;24.55;14.48;;;17.20;99.90;;;;;;5050826;28;20055;-82
2023/06/20 02:30:10;;;;;;;23.45;13.65;;;17.20;99.90;;;;;;5053153;28;20107;-80
2023/06/20 02:32:58;;;;;;;23.20;14.55;;;17.20;99.90;;;;;;5048324;28;20087;-87
2023/06/20 02:35:47;;;;;;;17.88;12.38;;;17.20;99.90;;;;;;5049446;28;20059;-85
2023/06/20 02:38:33;;;;;;;22.67;12.02;;;17.20;99.90;;;;;;5049999;28;20123;-84
2023/06/20 02:41:20;;;;;;;20.10;12.77;;;17.20;99.90;;;;;;5049027;28;20047;-82
2023/06/20 02:44:06;;;;;;;19.17;11.57;;;17.20;99.90;;;;;;5059747;28;20059;-79
2023/06/20 02:47:01;;;;;;;20.27;12.27;;;17.10;99.90;;;;;;5041889;28;20144;-79
2023/06/20 02:49:53;;;;;;;20.67;11.85;;;17.10;99.90;;;;;;5056653;28;20548;-78
2023/06/20 02:52:52;;;;;;;17.35;10.85;;;17.10;99.90;;;;;;5055991;28;20052;-78
2023/06/20 02:55:45;;;;;;;19.75;11.20;;;17.10;99.90;;;;;;5037388;28;20045;-79
2023/06/20 02:58:34;;;;;;;18.42;10.50;;;17.10;99.90;;;;;;5052219;28;20053;-83
2023/06/20 03:01:25;;;;;;;16.80;10.43;;;17.10;99.90;;;;;;5051002;28;20088;-80
2023/06/20 03:04:13;;;;;;;18.75;10.35;;;17.10;99.90;;;;;;5051466;28;20052;-78
2023/06/20 03:07:01;;;;;;;16.65;10.60;;;17.10;99.90;;;;;;5039219;28;20056;-81
2023/06/20 03:09:48;;;;;;;13.45;8.95;;;17.20;99.90;;;;;;5051522;28;20061;-78
2023/06/20 03:12:34;;;;;;;14.88;9.02;;;17.20;99.90;;;;;;5051170;28;20056;-78
2023/06/20 03:15:21;;;;;;;14.57;8.95;;;17.20;99.90;;;;;;5051833;28;20539;-80
2023/06/20 03:18:07;;;;;;;13.93;9.57;;;17.20;99.90;;;;;;5052939;28;20052;-79
2023/06/20 03:20:53;;;;;;;15.00;9.40;;;17.20;99.90;;;;;;5036703;28;20053;-79
2023/06/20 03:23:40;;;;;;;15.68;9.23;;;17.20;99.90;;;;;;5036390;28;20085;-81
2023/06/20 03:26:26;;;;;;;18.60;9.48;;;17.20;99.90;;;;;;5052984;28;20132;-78
2023/06/20 03:29:12;;;;;;;15.80;9.30;;;17.30;99.90;;;;;;5051432;28;20128;-90
2023/06/20 03:31:58;;;;;;;15.55;9.50;;;17.20;99.90;;;;;;5036480;28;20099;-80
2023/06/20 03:34:45;;;;;;;16.70;9.32;;;17.30;99.90;;;;;;5037264;28;20053;-80
2023/06/20 03:37:31;;;;;;;15.73;10.60;;;17.20;99.90;;;;;;5051399;28;20057;-78
2023/06/20 03:40:17;;;;;;;20.50;10.20;;;17.20;99.90;;;;;;5036778;28;20092;-84
2023/06/20 03:43:03;;;;;;;15.30;8.80;;;17.30;99.90;;;;;;5051974;28;20049;-81
2023/06/20 03:45:49;;;;;;;16.98;10.00;;;17.30;99.90;;;;;;5053051;28;20052;-83
2023/06/20 03:48:35;;;;;;;17.02;8.68;;;17.30;99.90;;;;;;5034800;28;20084;-82
2023/06/20 03:51:21;;;;;;;12.57;7.90;;;17.30;99.90;;;;;;5055033;28;20148;-85
2023/06/20 03:54:07;;;;;;;14.82;9.32;;;17.40;99.90;;;;;;5051374;28;20091;-79
2023/06/20 03:56:53;;;;;;;17.38;10.15;;;17.40;99.90;;;;;;5033111;28;20511;-79
2023/06/20 03:59:39;;;;;;;14.43;9.68;;;17.40;99.90;;;;;;5051456;28;20053;-80
2023/06/20 04:02:25;;;;;;;14.73;8.80;;;17.40;99.90;;;;;;5051695;28;20075;-82
2023/06/20 04:05:12;;;;;;;13.60;8.77;;;17.40;99.90;;;;;;5033774;28;20460;-82
2023/06/20 04:08:00;;;;;;;14.60;9.35;;;17.50;99.90;;;;;;5036675;28;20179;-80
2023/06/20 04:10:46;;;;;;;14.35;9.00;;;17.50;99.90;;;;;;5038947;28;20068;-80
2023/06/20 04:13:32;;;;;;;15.82;8.35;;;17.50;99.90;;;;;;5033253;28;20055;-80
2023/06/20 04:16:18;;;;;;;15.02;9.25;;;17.50;99.90;;;;;;5033068;28;20059;-80
2023/06/20 04:19:05;;;;;;;18.60;8.68;;;17.60;99.90;;;;;;5050971;28;20067;-81
2023/06/20 04:21:51;;;;;;;13.23;8.50;;;17.60;99.90;;;;;;5051428;28;20067;-80
2023/06/20 04:24:37;;;;;;;10.93;7.57;;;17.70;99.90;;;;;;5052326;28;20385;-80
2023/06/20 04:27:23;;;;;;;12.57;7.32;;;17.70;99.90;;;;;;5052509;28;20053;-82
2023/06/20 04:30:09;;;;;;;12.82;7.85;;;17.70;99.90;;;;;;5054328;28;20554;-84
2023/06/20 04:32:55;;;;;;;13.27;8.23;;;17.80;99.90;;;;;;5036247;28;20512;-84
2023/06/20 04:35:41;;;;;;;14.82;9.18;;;17.80;99.90;;;;;;5049957;28;20147;-79
2023/06/20 04:38:27;;;;;;;14.40;9.35;;;17.90;99.90;;;;;;5051914;28;20053;-82
2023/06/20 04:41:13;;;;;;;12.85;8.52;;;17.90;99.90;;;;;;5051731;28;20053;-80
2023/06/20 04:44:00;;;;;;;13.07;8.70;;;17.90;99.90;;;;;;5049888;28;20106;-80
2023/06/20 04:46:46;;;;;;;13.43;8.40;;;18.00;99.90;;;;;;5033211;28;20063;-81
2023/06/20 04:49:32;;;;;;;15.77;10.00;;;18.00;99.90;;;;;;5051752;28;20045;-80
2023/06/20 04:52:18;;;;;;;17.00;11.15;;;18.00;99.90;;;;;;5038660;28;20111;-79
2023/06/20 04:55:04;;;;;;;13.57;9.60;;;18.00;99.90;;;;;;5033790;28;20424;-79
2023/06/20 04:57:50;;;;;;;15.02;9.00;;;18.10;99.90;;;;;;5050615;28;20041;-83
2023/06/20 05:00:37;;;;;;;14.27;9.55;;;18.10;99.90;;;;;;5051260;28;20121;-79
2023/06/20 05:03:23;;;;;;;18.20;9.48;;;18.10;99.90;;;;;;5035185;28;20098;-79
2023/06/20 05:06:16;;;;;;;15.32;8.50;;;18.10;99.90;;;;;;5035139;28;20052;-83
2023/06/20 05:09:03;;;;;;;14.48;9.07;;;18.20;99.90;;;;;;5049420;28;20132;-81
2023/06/20 05:11:49;;;;;;;17.08;8.35;;;18.20;99.90;;;;;;5049422;28;20049;-80
2023/06/20 05:14:35;;;;;;;16.10;8.70;;;18.30;99.90;;;;;;5032045;28;20060;-82
2023/06/20 05:17:21;;;;;;;14.45;8.75;;;18.40;99.90;;;;;;5032419;28;20531;-86
2023/06/20 05:20:08;;;;;;;15.00;9.68;;;18.40;99.90;;;;;;5051554;28;20139;-80
2023/06/20 05:22:54;;;;;;;12.75;7.95;;;18.40;99.90;;;;;;5051067;28;20135;-82
2023/06/20 05:25:40;;;;;;;13.55;8.23;;;18.50;99.90;;;;;;5034594;28;20595;-80
2023/06/20 05:28:26;;;;;;;16.48;9.32;;;18.60;99.90;;;;;;5050837;28;20049;-80
2023/06/20 05:31:13;;;;;;;12.27;7.63;;;18.60;99.90;;;;;;5049895;28;20040;-80
2023/06/20 05:33:59;;;;;;;12.63;8.68;;;18.70;99.90;;;;;;5049421;28;20040;-83
2023/06/20 05:36:46;;;;;;;14.80;9.25;;;18.70;99.90;;;;;;5049535;28;20396;-81
2023/06/20 05:39:32;;;;;;;14.80;8.63;;;18.70;99.90;;;;;;5049545;28;20053;-86
2023/06/20 05:42:18;;;;;;;15.80;9.65;;;18.70;99.90;;;;;;5050304;28;20045;-79
2023/06/20 05:45:05;;;;;;;18.30;9.52;;;18.70;99.90;;;;;;5053737;28;20053;-80
2023/06/20 05:47:51;;;;;;;12.70;8.75;;;18.70;99.90;;;;;;5050478;28;20528;-81
2023/06/20 05:50:37;;;;;;;12.70;8.63;;;18.60;99.90;;;;;;5050300;28;20053;-82
2023/06/20 05:53:23;;;;;;;15.32;9.20;;;18.70;99.90;;;;;;5031350;28;20049;-80
2023/06/20 05:56:10;;;;;;;15.48;9.20;;;18.70;99.90;;;;;;5049650;28;20045;-81
2023/06/20 05:58:56;;;;;;;18.23;9.18;;;18.70;99.90;;;;;;5048959;28;20060;-82
2023/06/20 06:01:44;;;;;;;13.23;9.50;;;18.70;99.90;;;;;;5031610;28;20095;-80
2023/06/20 06:04:31;;;;;;;17.60;9.23;;;18.70;99.90;;;;;;5049755;28;20037;-83
2023/06/20 06:07:17;;;;;;;19.65;9.40;;;18.80;99.90;;;;;;5050853;28;20045;-91
2023/06/20 06:10:05;;;;;;;17.35;9.15;;;18.70;99.90;;;;;;5054668;28;20041;-83
2023/06/20 06:12:51;;;;;;;16.60;9.52;;;18.80;99.90;;;;;;5037216;28;20045;-83
2023/06/20 06:15:37;;;;;;;14.02;8.80;;;18.90;99.90;;;;;;5048749;28;20523;-78
2023/06/20 06:18:23;;;;;;;21.52;8.45;;;19.00;99.90;;;;;;5051580;28;20053;-83
2023/06/20 06:21:10;;;;;;;14.57;8.15;;;19.10;99.90;;;;;;5052685;28;20162;-79
2023/06/20 06:23:56;;;;;;;17.55;9.20;;;19.20;99.90;;;;;;5053255;28;20504;-82
2023/06/20 06:26:42;;;;;;;13.23;9.23;;;19.30;99.90;;;;;;5052262;28;20049;-81
2023/06/20 06:29:28;;;;;;;18.60;8.43;;;19.50;99.90;;;;;;5051704;28;20056;-80
2023/06/20 06:32:16;;;;;;;19.67;8.23;;;19.50;99.90;;;;;;5034174;28;20099;-81
2023/06/20 06:35:04;;;;;;;18.83;8.20;;;19.70;99.90;;;;;;5034838;28;20049;-80
2023/06/20 06:37:52;;;;;;;13.60;8.55;;;19.80;99.90;;;;;;5040822;28;20055;-79
2023/06/20 06:40:38;;;;;;;16.27;8.35;;;19.90;99.90;;;;;;5024791;28;20045;-79
2023/06/20 06:43:24;;;;;;;15.85;7.95;;;20.00;99.90;;;;;;5031644;28;20080;-80
2023/06/20 06:46:10;;;;;;;14.77;8.35;;;20.10;99.90;;;;;;5033718;28;20276;-81
2023/06/20 06:48:57;;;;;;;12.13;7.95;;;20.20;99.90;;;;;;5034299;28;20053;-79
2023/06/20 06:51:43;;;;;;;11.50;7.72;;;20.30;99.90;;;;;;5032799;28;20057;-80
2023/06/20 06:54:29;;;;;;;16.10;8.35;;;20.30;99.90;;;;;;5034343;28;20139;-81
2023/06/20 06:57:15;;;;;;;13.45;8.00;;;20.40;99.90;;;;;;5019130;28;20127;-81
2023/06/20 07:00:01;;;;;;;11.88;7.25;;;20.50;99.90;;;;;;5032952;28;20537;-79
2023/06/20 07:02:47;;;;;;;14.70;7.80;;;20.60;99.90;;;;;;5035847;28;20080;-87
2023/06/20 07:05:33;;;;;;;13.48;8.27;;;20.70;99.90;;;;;;5033495;28;20474;-82
2023/06/20 07:08:19;;;;;;;13.00;7.65;;;20.80;99.90;;;;;;5032858;28;20061;-79
2023/06/20 07:11:05;;;;;;;12.52;7.97;;;20.80;99.90;;;;;;5031521;28;20420;-80
2023/06/20 07:13:51;;;;;;;18.50;8.10;;;20.90;99.90;;;;;;5032821;28;20081;-81
2023/06/20 07:16:37;;;;;;;15.57;8.45;;;20.90;99.90;;;;;;5037328;28;20053;-80
2023/06/20 07:19:23;;;;;;;12.35;7.97;;;21.00;99.90;;;;;;5032281;28;20088;-80
2023/06/20 07:22:09;;;;;;;13.65;8.57;;;21.00;99.90;;;;;;5031988;28;20531;-81
2023/06/20 07:24:55;;;;;;;12.65;7.53;;;21.20;99.90;;;;;;5031423;28;20046;-80
2023/06/20 07:27:41;;;;;;;13.65;8.90;;;21.30;99.90;;;;;;5018234;28;20148;-83
2023/06/20 07:30:27;;;;;;;13.98;8.35;;;21.50;99.90;;;;;;5035890;28;20075;-79
2023/06/20 07:33:13;;;;;;;15.32;8.27;;;21.70;99.90;;;;;;5033139;28;20049;-80
2023/06/20 07:36:00;;;;;;;15.75;7.82;;;21.80;99.90;;;;;;5031106;28;20061;-79
2023/06/20 07:38:46;;;;;;;12.77;7.85;;;21.80;99.90;;;;;;5031906;28;20060;-80
2023/06/20 07:41:32;;;;;;;17.52;9.10;;;21.90;99.90;;;;;;5032211;28;20056;-80
2023/06/20 07:44:18;;;;;;;14.05;9.90;;;21.90;99.90;;;;;;5030320;28;20049;-80
2023/06/20 07:47:04;;;;;;;14.07;8.55;;;21.90;99.90;;;;;;5032575;28;20503;-81
2023/06/20 07:49:50;;;;;;;12.77;8.50;;;22.00;99.90;;;;;;5031297;28;20394;-79
2023/06/20 07:52:37;;;;;;;12.85;9.55;;;22.00;99.90;;;;;;5031398;28;20052;-79
2023/06/20 07:55:23;;;;;;;15.90;9.55;;;22.10;99.90;;;;;;5032130;28;20461;-79
2023/06/20 07:58:09;;;;;;;12.95;8.77;;;22.00;99.90;;;;;;5030312;28;20053;-79
2023/06/20 08:00:56;;;;;;;13.52;9.15;;;22.10;99.90;;;;;;5031659;28;20143;-82
2023/06/20 08:03:42;;;;;;;15.75;9.50;;;22.20;99.90;;;;;;5036776;28;20087;-78
2023/06/20 08:06:28;;;;;;;15.15;9.25;;;22.20;99.90;;;;;;5032162;28;20458;-79
2023/06/20 08:09:14;;;;;;;13.88;8.07;;;22.30;99.90;;;;;;5031415;28;20057;-81
2023/06/20 08:12:00;;;;;;;14.63;9.43;;;22.40;99.90;;;;;;5032458;28;20060;-80
2023/06/20 08:14:46;;;;;;;15.45;10.23;;;22.40;99.90;;;;;;5029548;28;20053;-80
2023/06/20 08:17:32;;;;;;;19.73;10.38;;;22.40;99.90;;;;;;5051768;28;20049;-79
2023/06/20 08:20:19;;;;;;;17.27;10.40;;;22.40;99.90;;;;;;5051876;28;20091;-84
2023/06/20 08:23:05;;;;;;;16.48;10.07;;;22.40;99.90;;;;;;5052380;28;20049;-79
2023/06/20 08:25:55;;;;;;;16.75;11.15;;;22.40;99.90;;;;;;5051156;28;20053;-82
2023/06/20 08:28:41;;;;;;;18.27;10.80;;;22.40;99.90;;;;;;5059411;28;20049;-80
2023/06/20 08:31:36;;;;;;;18.73;11.50;;;22.40;99.90;;;;;;5052270;28;20515;-80
2023/06/20 08:34:22;;;;;;;20.98;11.38;;;22.50;99.90;;;;;;5052258;28;20053;-84
2023/06/20 08:37:08;;;;;;;17.23;11.30;;;22.60;99.90;;;;;;5038591;28;20063;-83
2023/06/20 08:39:54;;;;;;;15.95;10.05;;;22.70;99.90;;;;;;5033290;28;20060;-82
2023/06/20 08:42:43;;;;;;;18.17;10.75;;;22.80;99.90;;;;;;5053344;28;20056;-81
2023/06/20 08:45:29;;;;;;;16.30;11.38;;;22.90;99.90;;;;;;5034013;28;20063;-81
2023/06/20 08:48:16;;;;;;;14.77;10.65;;;23.00;99.90;;;;;;5052101;28;20051;-90
2023/06/20 08:51:03;;;;;;;18.67;11.32;;;23.10;99.90;;;;;;5031696;28;20045;-81
2023/06/20 08:53:50;;;;;;;19.17;10.57;;;23.10;99.90;;;;;;5051492;28;20110;-79
2023/06/20 08:56:36;;;;;;;18.77;11.48;;;23.30;99.90;;;;;;5053773;28;20084;-81
2023/06/20 08:59:22;;;;;;;18.70;11.52;;;23.50;99.90;;;;;;5055143;28;20063;-79
2023/06/20 09:02:09;;;;;;;13.25;10.45;;;23.60;99.90;;;;;;5055632;28;20045;-80
2023/06/20 09:05:01;;;;;;;17.65;10.65;;;23.70;99.90;;;;;;5054545;28;20076;-79
2023/06/20 09:07:47;;;;;;;13.02;10.68;;;23.70;99.90;;;;;;5050171;28;20045;-79
2023/06/20 09:10:33;;;;;;;14.30;9.82;;;23.80;99.90;;;;;;5031946;28;20056;-79
2023/06/20 09:13:28;;;;;;;14.48;9.75;;;23.90;99.90;;;;;;5031853;28;20102;-81
2023/06/20 09:16:14;;;;;;;14.63;9.23;;;23.90;99.90;;;;;;5020385;28;20072;-79
2023/06/20 09:19:03;;;;;;;18.95;11.50;;;24.00;99.90;;;;;;5020062;28;20114;-79
2023/06/20 09:21:49;;;;;;;16.25;10.00;;;24.10;99.90;;;;;;5032948;28;20051;-80
2023/06/20 09:24:43;;;;;;;16.63;10.25;;;24.20;99.90;;;;;;5033107;28;20060;-80
2023/06/20 09:27:34;;;;;;;16.58;10.43;;;24.20;99.90;;;;;;5052083;28;20106;-82
2023/06/20 09:30:21;;;;;;;19.33;10.85;;;24.40;99.90;;;;;;5019706;28;20057;-80
2023/06/20 09:33:13;;;;;;;13.40;8.10;;;24.50;99.90;;;;;;5052171;28;20575;-85
2023/06/20 09:36:11;;;;;;;17.25;9.02;;;24.70;99.90;;;;;;5050619;28;20481;-80
2023/06/20 09:38:59;;;;;;;20.98;9.77;;;24.90;99.90;;;;;;5049235;28;20045;-81
2023/06/20 09:41:50;;;;;;;14.25;9.27;;;25.00;99.90;;;;;;5005277;28;20428;-80
2023/06/20 09:44:36;;;;;;;12.63;8.65;;;25.20;99.90;;;;;;5034519;28;20589;-78
2023/06/20 09:47:22;;;;;;;14.68;9.95;;;25.20;99.90;;;;;;5032850;28;20045;-78
2023/06/20 09:50:16;;;;;;;12.70;7.82;;;25.10;99.90;;;;;;5036521;28;20115;-84
2023/06/20 09:53:28;;;;;;;10.70;8.23;;;25.30;99.90;;;;;;5050260;28;20052;-80
2023/06/20 09:56:16;;;;;;;15.55;9.55;;;25.40;99.90;;;;;;5050667;28;20092;-79
2023/06/20 09:59:04;;;;;;;18.40;9.27;;;25.50;99.90;;;;;;5050041;28;20057;-84
2023/06/20 10:01:50;;;;;;;11.52;8.60;;;25.50;99.90;;;;;;5031848;28;20504;-83
2023/06/20 10:04:44;;;;;;;13.35;8.40;;;25.60;99.90;;;;;;5050159;28;20055;-80
2023/06/20 10:07:31;;;;;;;11.00;8.20;;;25.80;99.90;;;;;;5037809;28;20055;-79
2023/06/20 10:10:17;;;;;;;13.48;7.80;;;26.00;99.90;;;;;;5052566;28;20063;-80
2023/06/20 10:13:04;;;;;;;11.60;7.38;;;26.10;99.90;;;;;;5053861;28;20566;-83
2023/06/20 10:15:50;;;;;;;15.52;8.55;;;26.40;99.80;;;;;;5048993;28;20056;-80
2023/06/20 10:18:37;;;;;;;12.10;7.32;;;26.80;99.40;;;;;;5030205;28;20127;-88
2023/06/20 10:21:51;;;;;;;13.57;8.65;;;27.20;99.10;;;;;;5048195;28;20060;-85
2023/06/20 10:24:40;;;;;;;12.63;7.70;;;27.70;97.30;;;;;;5047797;28;20048;-84
2023/06/20 10:27:27;;;;;;;12.88;6.45;;;27.90;97.90;;;;;;5047149;28;20375;-86
2023/06/20 10:30:13;;;;;;;11.43;7.65;;;28.40;97.80;;;;;;5015977;28;20499;-85
2023/06/20 10:33:10;;;;;;;11.45;8.60;;;28.70;96.80;;;;;;5048082;28;20037;-83
2023/06/20 10:36:02;;;;;;;12.55;8.35;;;28.70;95.30;;;;;;5032186;28;20052;-85
2023/06/20 10:38:51;;;;;;;13.20;8.65;;;28.90;95.40;;;;;;5048455;28;20048;-82
2023/06/20 10:41:41;;;;;;;13.15;7.32;;;29.00;95.20;;;;;;5048180;28;20056;-85
2023/06/20 10:44:29;;;;;;;11.25;7.57;;;29.10;95.30;;;;;;5048579;28;20041;-87
2023/06/20 10:47:14;;;;;;;10.43;7.32;;;29.30;95.20;;;;;;5047756;28;20114;-84
2023/06/20 10:50:01;;;;;;;15.75;7.90;;;29.60;95.20;;;;;;5048919;28;20064;-80
2023/06/20 10:52:48;;;;;;;16.08;7.95;;;29.70;94.80;;;;;;5049528;28;20049;-86
2023/06/20 10:55:37;;;;;;;11.18;7.25;;;29.80;94.40;;;;;;5047903;28;20045;-88
2023/06/20 10:58:23;;;;;;;16.60;7.97;;;29.80;94.20;;;;;;5048822;28;20049;-86
2023/06/20 11:01:09;;;;;;;12.80;9.30;;;29.80;94.30;;;;;;5048651;28;20399;-89
2023/06/20 11:03:56;;;;;;;13.00;7.47;;;30.00;93.80;;;;;;5048154;28;20071;-87
2023/06/20 11:06:42;;;;;;;13.95;8.35;;;30.10;93.80;;;;;;5050546;28;20045;-85
2023/06/20 11:09:28;;;;;;;14.68;6.47;;;30.50;93.80;;;;;;5011785;28;1172869;-84
2023/06/20 11:12:14;;;;;;;12.63;7.57;;;31.00;93.70;;;;;;5053793;28;20143;-88
2023/06/20 11:15:22;;;;;;;11.90;6.13;;;31.30;93.10;;;;;;5051654;28;20064;-86
2023/06/20 11:18:09;;;;;;;8.88;5.78;;;31.60;92.80;;;;;;5051341;28;20045;-86
2023/06/20 11:20:58;;;;;;;9.73;6.03;;;31.50;91.80;;;;;;5051598;28;20057;-81
2023/06/20 11:23:44;;;;;;;10.43;5.50;;;31.70;91.50;;;;;;5050395;28;20088;-86
2023/06/20 11:26:32;;;;;;;6.82;5.35;;;31.80;91.40;;;;;;5051804;28;20052;-84
2023/06/20 11:29:18;;;;;;;7.68;5.22;;;31.70;91.00;;;;;;5039016;28;20084;-84
2023/06/20 11:32:08;;;;;;;9.73;5.22;;;32.00;91.10;;;;;;5056747;28;20152;-86
2023/06/20 11:34:59;;;;;;;8.10;4.93;;;31.90;90.10;;;;;;5051102;28;20064;-82
2023/06/20 11:37:46;;;;;;;9.35;6.15;;;31.90;90.50;;;;;;5051409;28;20059;-86
2023/06/20 11:40:32;;;;;;;9.80;5.82;;;32.00;90.60;;;;;;5051726;28;20493;-80
2023/06/20 11:43:20;;;;;;;7.53;5.13;;;32.20;90.50;;;;;;5034439;28;20056;-85
2023/06/20 11:46:07;;;;;;;9.75;5.03;;;32.40;90.20;;;;;;5037500;28;20097;-85
2023/06/20 11:48:58;;;;;;;8.77;6.10;;;32.60;90.00;;;;;;5033249;28;20131;-84
2023/06/20 11:51:44;;;;;;;7.55;5.43;;;32.70;88.60;;;;;;5052548;28;20102;-87
2023/06/20 11:54:48;;;;;;;7.25;4.43;;;33.10;88.50;;;;;;5037153;28;20060;-87
2023/06/20 11:57:35;;;;;;;6.90;4.47;;;33.20;88.10;;;;;;5050115;28;20587;-86
2023/06/20 12:00:24;;;;;;;6.97;4.82;;;33.20;87.60;;;;;;5050950;28;20052;-83
2023/06/20 12:03:10;;;;;;;6.38;4.07;;;33.60;88.00;;;;;;5050974;28;20122;-84
2023/06/20 12:05:56;;;;;;;6.03;3.55;;;33.80;87.00;;;;;;5050796;28;20790;-84
2023/06/20 12:08:53;;;;;;;10.52;5.00;;;34.00;85.80;;;;;;5050237;28;20517;-82
2023/06/20 12:12:06;;;;;;;8.55;4.13;;;34.00;83.90;;;;;;5056673;28;20044;-86
2023/06/20 12:14:52;;;;;;;8.32;5.03;;;34.20;82.10;;;;;;5050112;28;20060;-83
2023/06/20 12:17:38;;;;;;;7.90;4.25;;;34.40;85.20;;;;;;5050487;28;20048;-86
2023/06/20 12:20:24;;;;;;;6.47;4.05;;;34.50;84.10;;;;;;5050503;28;20412;-84
2023/06/20 12:23:10;;;;;;;8.52;4.03;;;34.60;82.70;;;;;;5050599;28;20053;-87
2023/06/20 12:25:56;;;;;;;11.27;4.57;;;34.90;82.90;;;;;;5050364;28;20045;-84
2023/06/20 12:28:42;;;;;;;23.45;6.45;;;34.90;83.30;;;;;;5050152;28;20524;-78
2023/06/20 12:31:28;;;;;;;7.07;4.38;;;35.30;82.90;;;;;;5051709;28;20059;-77
2023/06/20 12:34:14;;;;;;;9.63;4.18;;;35.10;82.70;;;;;;5032694;28;20119;-81
2023/06/20 12:37:00;;;;;;;7.05;4.90;;;35.20;81.90;;;;;;5050518;28;20123;-84
2023/06/20 12:39:46;;;;;;;8.45;4.97;;;35.00;80.70;;;;;;5050376;28;20144;-83
2023/06/20 12:42:35;;;;;;;10.80;5.40;;;34.80;79.90;;;;;;5049689;28;20055;-88
2023/06/20 12:45:21;;;;;;;11.23;4.78;;;34.90;80.30;;;;;;5052669;28;20076;-84
2023/06/20 12:48:07;;;;;;;12.52;5.53;;;35.00;81.10;;;;;;5032660;28;20048;-79
2023/06/20 12:50:53;;;;;;;9.13;5.57;;;35.40;80.80;;;;;;5050522;28;20049;-80
2023/06/20 12:53:39;;;;;;;9.55;4.57;;;34.70;80.20;;;;;;5032197;28;20084;-78
2023/06/20 12:56:25;;;;;;;6.43;4.38;;;34.50;80.80;;;;;;5049856;28;20068;-83
2023/06/20 12:59:11;;;;;;;8.32;6.13;;;34.60;81.80;;;;;;5049979;28;20048;-80
2023/06/20 13:01:57;;;;;;;9.63;5.40;;;34.50;81.20;;;;;;5049295;28;20055;-86
2023/06/20 13:04:43;;;;;;;9.00;5.15;;;34.40;81.20;;;;;;5052556;28;20132;-77
2023/06/20 13:07:29;;;;;;;8.52;5.00;;;34.30;81.00;;;;;;5048792;28;20508;-78
2023/06/20 13:10:17;;;;;;;7.28;5.00;;;34.30;81.50;;;;;;5050399;28;20052;-83
2023/06/20 13:13:03;;;;;;;7.25;5.50;;;34.00;81.40;;;;;;5032450;28;20041;-78
2023/06/20 13:15:49;;;;;;;14.40;6.40;;;34.10;82.60;;;;;;5017280;28;20059;-79
2023/06/20 13:18:35;;;;;;;13.95;6.55;;;34.10;82.10;;;;;;5018323;28;20386;-83
2023/06/20 13:21:21;;;;;;;13.80;6.57;;;34.00;81.80;;;;;;5032099;28;20068;-88
2023/06/20 13:24:07;;;;;;;11.32;5.95;;;34.40;83.00;;;;;;5051031;28;20045;-78
2023/06/20 13:26:53;;;;;;;11.73;6.20;;;35.10;83.20;;;;;;5049942;28;20493;-87
2023/06/20 13:29:40;;;;;;;8.82;6.50;;;35.50;81.00;;;;;;5053941;28;20182;-86
2023/06/20 13:32:25;;;;;;;10.57;7.65;;;35.40;80.20;;;;;;5050881;28;20063;-84
2023/06/20 13:35:12;;;;;;;10.35;6.07;;;35.40;79.70;;;;;;5049469;28;20057;-84
2023/06/20 13:37:58;;;;;;;11.02;7.63;;;35.50;80.40;;;;;;5031771;28;20099;-80
2023/06/20 13:40:45;;;;;;;12.23;6.70;;;35.50;80.40;;;;;;5049645;28;20761;-78
2023/06/20 13:43:31;;;;;;;9.30;7.20;;;35.80;80.80;;;;;;5049170;28;20052;-75
2023/06/20 13:46:19;;;;;;;8.13;5.90;;;35.40;79.70;;;;;;5034042;28;20075;-80
2023/06/20 13:49:05;;;;;;;11.93;7.75;;;34.80;80.50;;;;;;5051646;28;20091;-83
2023/06/20 13:51:52;;;;;;;12.60;8.35;;;34.10;81.30;;;;;;5050018;28;20152;-83
2023/06/20 13:54:38;;;;;;;11.32;7.80;;;33.80;82.60;;;;;;5035276;28;20044;-82
2023/06/20 13:57:24;;;;;;;8.95;7.43;;;33.80;83.20;;;;;;5050716;28;20052;-79
2023/06/20 14:00:11;;;;;;;9.60;6.65;;;33.80;84.00;;;;;;5032242;28;20060;-79
2023/06/20 14:02:57;;;;;;;9.98;7.63;;;34.10;83.90;;;;;;5051857;28;20452;-83
2023/06/20 14:05:43;;;;;;;10.57;8.75;;;34.60;82.70;;;;;;5034549;28;20049;-83
2023/06/20 14:08:29;;;;;;;13.57;7.50;;;35.10;81.90;;;;;;5047634;28;20053;-78
2023/06/20 14:11:16;;;;;;;12.38;7.80;;;35.20;81.70;;;;;;5048648;28;20053;-77
2023/06/20 14:14:02;;;;;;;9.55;7.03;;;35.30;81.20;;;;;;5048700;28;20088;-77
2023/06/20 14:16:48;;;;;;;11.23;8.10;;;35.90;81.50;;;;;;5049017;28;20385;-77
2023/06/20 14:19:34;;;;;;;13.05;8.98;;;36.20;79.90;;;;;;5049386;28;20132;-82
2023/06/20 14:22:20;;;;;;;11.55;7.18;;;35.70;79.60;;;;;;5053053;28;20053;-79